Time;durP1;ratioP1;P1;durP2;ratioP2;P2;SDS_P1;SDS_P2;PMS_P1;PMS_P2;Temp;Humidity;BMP_temperature;BMP_pressure;BME280_temperature;BME280_humidity;BME280_pressure;Samples;Min_cycle;Max_cycle;Signal;HPM_P1;HPM_P2
2022/02/22 00:02:17;;;;;;;30.65;20.15;;;307.60;2304.00;;;;;;5464120;23;20064;-84
2022/02/22 00:22:35;;;;;;;;;;;;;;;;;;;;;
2022/02/22 00:25:55;;;;;;;19.15;15.75;;;282.40;2278.40;;;;;;4693160;30;20054;-86
2022/02/22 00:46:10;;;;;;;25.52;19.73;;;282.20;2278.40;;;;;;4692012;29;20030;-85
2022/02/22 01:21:12;;;;;;;30.95;24.23;;;281.60;2278.40;;;;;;4784147;30;20579;-85
2022/02/22 01:31:26;;;;;;;41.58;29.67;;;256.80;2252.80;;;;;;4698317;30;20038;-83
2022/02/22 01:33:58;;;;;;;30.15;21.42;;;256.80;2252.80;;;;;;4761010;29;20411;-85
2022/02/22 01:36:26;;;;;;;33.28;22.33;;;256.80;2252.80;;;;;;4840488;29;20121;-85
2022/02/22 01:39:51;;;;;;;33.55;20.98;;;256.80;2252.80;;;;;;4877685;29;20039;-86
2022/02/22 01:42:20;;;;;;;31.88;21.80;;;256.80;2252.80;;;;;;4839862;29;20527;-86
2022/02/22 01:45:05;;;;;;;24.63;17.30;;;256.80;2252.80;;;;;;4840130;29;20483;-85
2022/02/22 01:47:31;;;;;;;25.23;17.77;;;256.60;2252.80;;;;;;4829009;29;20037;-84
2022/02/22 01:50:21;;;;;;;24.00;15.48;;;256.40;2252.80;;;;;;4889518;29;20048;-84
2022/02/22 01:53:09;;;;;;;16.30;11.40;;;256.40;2252.80;;;;;;4855926;29;20036;-86
2022/02/22 01:55:36;;;;;;;14.93;11.25;;;256.30;2252.80;;;;;;4824880;29;20108;-87
2022/02/22 01:58:04;;;;;;;28.20;14.43;;;256.20;2252.80;;;;;;4825395;29;20045;-85
2022/02/22 02:00:48;;;;;;;14.05;10.02;;;256.10;2252.80;;;;;;4840416;29;20114;-86
2022/02/22 02:03:18;;;;;;;23.45;12.00;;;256.20;2252.80;;;;;;4823816;29;20042;-87
2022/02/22 02:05:53;;;;;;;47.88;21.67;;;256.10;2252.80;;;;;;4840408;29;20119;-85
2022/02/22 02:08:20;;;;;;;39.45;20.38;;;256.10;2252.80;;;;;;4824498;29;20038;-85
2022/02/22 02:10:47;;;;;;;31.17;16.00;;;256.00;2252.80;;;;;;4819165;29;20133;-86
2022/02/22 02:13:14;;;;;;;27.15;13.63;;;231.30;2252.80;;;;;;4828864;29;20119;-85
2022/02/22 02:15:42;;;;;;;16.25;10.50;;;231.20;2252.80;;;;;;4840441;29;20034;-85
2022/02/22 02:18:10;;;;;;;20.13;12.52;;;231.10;2252.80;;;;;;4819875;29;20522;-84
2022/02/22 02:20:37;;;;;;;22.15;13.02;;;231.10;2252.80;;;;;;4809811;29;20042;-85
2022/02/22 02:23:30;;;;;;;22.17;13.20;;;230.80;2252.80;;;;;;4825240;29;20046;-84
2022/02/22 02:29:25;;;;;;;16.65;11.93;;;231.00;2252.80;;;;;;4847876;29;20101;-85
2022/02/22 02:31:58;;;;;;;16.13;10.98;;;231.00;2252.80;;;;;;4882425;29;20032;-85
2022/02/22 02:34:29;;;;;;;15.20;10.93;;;231.00;2252.80;;;;;;4900541;29;20043;-84
2022/02/22 02:37:22;;;;;;;14.77;9.10;;;230.90;2252.80;;;;;;4899815;29;20418;-85
2022/02/22 02:40:05;;;;;;;13.18;10.02;;;230.90;2252.80;;;;;;4900923;29;20021;-84
2022/02/22 02:42:45;;;;;;;10.63;7.43;;;230.80;2252.80;;;;;;4880694;29;20036;-83
2022/02/22 02:49:23;;;;;;;10.20;8.05;;;230.60;2252.80;;;;;;4901382;29;20040;-85
2022/02/22 02:59:23;;;;;;;11.50;7.55;;;230.50;2252.80;;;;;;4842795;29;20046;-84
2022/02/22 03:09:19;;;;;;;19.45;11.75;;;230.40;2252.80;;;;;;4900791;29;20106;-85
2022/02/22 03:12:47;;;;;;;12.98;7.80;;;230.40;2252.80;;;;;;4865879;29;20051;-83
2022/02/22 03:19:20;;;;;;;12.68;8.35;;;230.40;2252.80;;;;;;4843256;29;20044;-82
2022/02/22 03:37:10;;;;;;;12.88;8.10;;;230.40;2252.80;;;;;;4861144;29;20091;-81
2022/02/22 03:40:33;;;;;;;15.40;9.30;;;205.70;2252.80;;;;;;4795924;29;20030;-84
2022/02/22 03:44:14;;;;;;;12.52;7.60;;;205.70;2252.80;;;;;;4786984;29;20081;-84
2022/02/22 03:47:52;;;;;;;13.40;8.07;;;205.50;2252.80;;;;;;4770048;30;20082;-81
2022/02/22 03:50:30;;;;;;;11.15;7.00;;;205.40;2252.80;;;;;;4737390;30;20525;-80
2022/02/22 03:53:21;;;;;;;13.95;7.20;;;205.20;2252.80;;;;;;4737650;30;20563;-81
2022/02/22 03:56:16;;;;;;;8.25;5.13;;;205.20;2252.80;;;;;;4723963;30;20044;-81
2022/02/22 03:58:46;;;;;;;10.43;6.40;;;205.00;2252.80;;;;;;4706746;30;20040;-83
2022/02/22 04:01:40;;;;;;;8.90;5.25;;;204.90;2252.80;;;;;;4735069;30;20094;-79
2022/02/22 04:04:07;;;;;;;10.95;5.40;;;204.80;2252.80;;;;;;4746427;30;20043;-79
2022/02/22 04:06:37;;;;;;;8.70;5.07;;;204.80;2252.80;;;;;;4770804;30;20127;-80
2022/02/22 04:09:04;;;;;;;9.90;5.78;;;180.00;2252.80;;;;;;4777005;29;20046;-79
2022/02/22 04:11:34;;;;;;;8.70;4.50;;;179.90;2252.80;;;;;;4806332;29;20176;-80
2022/02/22 04:14:04;;;;;;;12.88;5.88;;;179.80;2252.80;;;;;;4834121;29;20568;-81
2022/02/22 04:16:54;;;;;;;12.68;7.03;;;179.80;2252.80;;;;;;4899505;29;20381;-82
2022/02/22 04:19:52;;;;;;;13.80;6.53;;;179.70;2252.80;;;;;;4882751;29;20028;-82
2022/02/22 04:23:07;;;;;;;10.55;5.85;;;179.60;2252.80;;;;;;4894854;29;20055;-81
2022/02/22 04:26:06;;;;;;;7.05;4.70;;;179.60;2252.80;;;;;;4899216;29;20048;-81
2022/02/22 04:28:40;;;;;;;16.05;8.65;;;179.40;2252.80;;;;;;4882581;29;20060;-83
2022/02/22 04:32:01;;;;;;;14.57;8.10;;;179.40;2252.80;;;;;;4894338;29;20124;-81
2022/02/22 04:34:54;;;;;;;25.40;13.85;;;179.40;2252.80;;;;;;4897948;29;20031;-84
2022/02/22 04:37:56;;;;;;;28.38;15.25;;;179.40;2252.80;;;;;;4866230;29;20063;-85
2022/02/22 04:41:11;;;;;;;43.00;30.90;;;179.40;2252.80;;;;;;4808441;29;20035;-84
2022/02/22 04:44:30;;;;;;;8.65;4.85;;;179.30;2252.80;;;;;;4733698;30;20619;-84
2022/02/22 04:47:44;;;;;;;11.23;5.53;;;179.20;2252.80;;;;;;4727794;30;20129;-82
2022/02/22 04:51:10;;;;;;;11.98;7.93;;;154.50;2252.80;;;;;;4767921;29;20066;-84
2022/02/22 04:53:45;;;;;;;7.25;5.15;;;179.20;2252.80;;;;;;4768994;30;20569;-82
2022/02/22 04:56:21;;;;;;;7.40;4.70;;;154.50;2252.80;;;;;;4754044;30;20067;-82
2022/02/22 04:58:56;;;;;;;7.93;5.15;;;154.40;2252.80;;;;;;4754070;30;20508;-82
2022/02/22 05:01:45;;;;;;;7.60;3.60;;;154.40;2252.80;;;;;;4769888;30;20386;-79
2022/02/22 05:04:13;;;;;;;8.20;4.85;;;154.40;2252.80;;;;;;4755184;30;20036;-84
2022/02/22 05:06:43;;;;;;;6.55;4.35;;;154.40;2252.80;;;;;;4755193;30;20174;-82
2022/02/22 05:09:22;;;;;;;11.00;6.32;;;154.30;2252.80;;;;;;4753176;30;20043;-83
2022/02/22 05:12:13;;;;;;;22.60;10.43;;;179.20;2252.80;;;;;;4758733;30;20460;-81
2022/02/22 05:15:00;;;;;;;17.65;9.80;;;154.30;2252.80;;;;;;4761759;30;20039;-83
2022/02/22 05:17:56;;;;;;;22.52;11.95;;;154.30;2252.80;;;;;;4791133;29;20031;-83
2022/02/22 05:21:04;;;;;;;28.73;13.15;;;154.40;2252.80;;;;;;4778141;29;20052;-84
2022/02/22 05:24:02;;;;;;;15.57;8.57;;;154.40;2252.80;;;;;;4733362;30;20566;-82
2022/02/22 05:26:36;;;;;;;15.43;7.43;;;154.30;2252.80;;;;;;4750826;30;20048;-81
2022/02/22 05:29:05;;;;;;;12.98;7.18;;;153.90;2252.80;;;;;;4751565;30;20075;-82
2022/02/22 05:31:33;;;;;;;17.17;9.85;;;154.30;2252.80;;;;;;4764547;30;20488;-82
2022/02/22 05:34:01;;;;;;;29.80;16.98;;;154.20;2252.80;;;;;;4741914;30;20067;-81
2022/02/22 05:36:27;;;;;;;15.55;10.35;;;154.10;2252.80;;;;;;4770142;30;20083;-83
2022/02/22 05:38:53;;;;;;;14.68;8.52;;;154.10;2252.80;;;;;;4769073;30;20039;-80
2022/02/22 05:41:19;;;;;;;13.98;8.50;;;154.10;2252.80;;;;;;4768222;30;20123;-80
2022/02/22 05:43:50;;;;;;;13.63;9.93;;;154.10;2252.80;;;;;;4794825;29;20034;-83
2022/02/22 05:46:17;;;;;;;13.07;9.30;;;154.00;2252.80;;;;;;4807305;29;20038;-80
2022/02/22 05:48:45;;;;;;;12.80;7.53;;;153.90;2252.80;;;;;;4806879;29;20070;-82
2022/02/22 05:51:11;;;;;;;9.20;6.22;;;154.10;2252.80;;;;;;4807117;29;20072;-83
2022/02/22 05:53:38;;;;;;;16.30;9.85;;;153.90;2252.80;;;;;;4822265;29;20042;-81
2022/02/22 05:56:06;;;;;;;20.55;10.38;;;154.00;2252.80;;;;;;4822175;29;20051;-82
2022/02/22 05:58:33;;;;;;;17.48;8.93;;;154.00;2252.80;;;;;;4807315;29;20068;-82
2022/02/22 06:00:59;;;;;;;28.88;15.05;;;154.00;2252.80;;;;;;4806974;29;20030;-82
2022/02/22 06:03:55;;;;;;;22.05;11.15;;;154.00;2252.80;;;;;;4807095;29;20042;-83
2022/02/22 06:06:44;;;;;;;14.60;8.57;;;154.00;2252.80;;;;;;4807444;29;20038;-82
2022/02/22 06:16:02;;;;;;;11.68;6.68;;;154.00;2252.80;;;;;;4881205;29;20044;-82
2022/02/22 06:18:28;;;;;;;7.75;4.47;;;153.90;2252.80;;;;;;4884240;29;20080;-80
2022/02/22 06:20:54;;;;;;;19.23;11.30;;;153.90;2252.80;;;;;;4884895;29;20028;-81
2022/02/22 06:23:20;;;;;;;13.60;7.70;;;154.00;2252.80;;;;;;4884318;29;20041;-82
2022/02/22 06:25:48;;;;;;;10.68;6.55;;;153.90;2252.80;;;;;;4885046;29;20036;-79
2022/02/22 06:28:19;;;;;;;13.55;8.68;;;153.90;2252.80;;;;;;4885397;29;20029;-81
2022/02/22 06:30:48;;;;;;;9.82;5.25;;;153.90;2252.80;;;;;;4901373;29;20116;-80
2022/02/22 06:33:35;;;;;;;13.57;8.50;;;153.90;2252.80;;;;;;4901141;29;20112;-80
2022/02/22 06:36:01;;;;;;;13.75;9.40;;;153.90;2252.80;;;;;;4884387;29;20064;-79
2022/02/22 06:38:27;;;;;;;8.23;4.68;;;153.90;2252.80;;;;;;4884572;29;20025;-80
2022/02/22 06:40:55;;;;;;;14.63;10.05;;;153.90;2252.80;;;;;;4884783;29;20370;-81
2022/02/22 06:43:49;;;;;;;10.93;6.80;;;153.90;2252.80;;;;;;4884660;29;20112;-82
2022/02/22 06:46:37;;;;;;;9.63;6.60;;;153.90;2252.80;;;;;;4897824;29;20044;-82
2022/02/22 06:49:43;;;;;;;20.48;11.90;;;154.00;2252.80;;;;;;4812965;29;20034;-83
2022/02/22 06:52:09;;;;;;;17.10;10.93;;;153.90;2252.80;;;;;;4884664;29;20032;-83
2022/02/22 06:55:18;;;;;;;14.77;8.93;;;153.90;2252.80;;;;;;4901029;29;20504;-80
2022/02/22 06:58:31;;;;;;;20.58;10.88;;;154.00;2252.80;;;;;;4879596;29;20044;-82
2022/02/22 07:01:08;;;;;;;13.15;7.20;;;154.10;2252.80;;;;;;4879977;29;20111;-80
2022/02/22 07:07:07;;;;;;;27.60;16.20;;;154.10;2252.80;;;;;;4856944;29;20071;-78
2022/02/22 07:09:34;;;;;;;21.85;13.00;;;154.10;2252.80;;;;;;4864229;29;20029;-76
2022/02/22 07:12:00;;;;;;;29.73;18.38;;;154.10;2252.80;;;;;;4863942;29;20029;-76
2022/02/22 07:14:26;;;;;;;30.92;18.20;;;179.40;2252.80;;;;;;4864307;29;20462;-77
2022/02/22 07:16:54;;;;;;;25.73;13.30;;;154.10;2252.80;;;;;;4863963;29;20037;-77
2022/02/22 07:20:06;;;;;;;28.38;16.55;;;154.00;2252.80;;;;;;4863846;29;20029;-81
2022/02/22 07:23:09;;;;;;;30.63;19.63;;;154.10;2252.80;;;;;;4870777;29;20045;-83
2022/02/22 07:29:38;;;;;;;24.27;15.52;;;153.90;2252.80;;;;;;4893952;29;20421;-82
2022/02/22 07:32:27;;;;;;;16.15;9.75;;;154.00;2252.80;;;;;;4878178;29;20077;-83
2022/02/22 07:35:31;;;;;;;9.68;5.40;;;154.00;2252.80;;;;;;4882968;29;20040;-81
2022/02/22 07:38:32;;;;;;;33.90;20.55;;;154.00;2252.80;;;;;;4882545;29;20037;-82
2022/02/22 07:41:40;;;;;;;25.83;16.33;;;154.00;2252.80;;;;;;4841118;29;20125;-83
2022/02/22 07:44:48;;;;;;;17.00;11.25;;;154.10;2252.80;;;;;;4842250;29;20515;-83
2022/02/22 07:48:02;;;;;;;13.05;9.75;;;154.10;2252.80;;;;;;4839082;29;20049;-84
2022/02/22 07:51:03;;;;;;;32.08;19.10;;;154.10;2252.80;;;;;;4877137;29;20489;-84
2022/02/22 07:54:25;;;;;;;28.38;18.00;;;154.00;2252.80;;;;;;4876840;29;20041;-83
2022/02/22 07:57:56;;;;;;;10.43;7.65;;;154.10;2252.80;;;;;;4853339;29;20040;-84
2022/02/22 08:01:11;;;;;;;18.90;12.63;;;154.20;2252.80;;;;;;4813288;29;20065;-82
2022/02/22 08:04:31;;;;;;;14.68;9.63;;;154.20;2252.80;;;;;;4808550;29;20039;-82
2022/02/22 08:08:26;;;;;;;17.42;14.45;;;154.40;2252.80;;;;;;4787726;30;20046;-81
2022/02/22 08:10:55;;;;;;;47.72;34.85;;;154.50;2252.80;;;;;;4699662;30;20503;-84
2022/02/22 08:17:59;;;;;;;24.55;20.40;;;154.30;2252.80;;;;;;4699562;30;20589;-82
2022/02/22 08:21:10;;;;;;;18.80;13.95;;;154.40;2252.80;;;;;;4651145;30;20109;-85
2022/02/22 08:24:24;;;;;;;29.92;17.45;;;154.30;2252.80;;;;;;4634611;30;20062;-84
2022/02/22 08:27:56;;;;;;;23.10;18.90;;;154.30;2252.80;;;;;;4610723;30;20414;-82
2022/02/22 08:31:10;;;;;;;11.23;7.32;;;154.40;2252.80;;;;;;4634211;30;20130;-81
2022/02/22 08:34:08;;;;;;;7.80;4.50;;;154.50;2252.80;;;;;;4647971;30;20079;-83
2022/02/22 08:37:08;;;;;;;12.88;8.23;;;154.30;2252.80;;;;;;4645015;30;20130;-82
2022/02/22 08:40:21;;;;;;;16.63;10.73;;;154.30;2252.80;;;;;;4633650;30;20512;-83
2022/02/22 08:44:13;;;;;;;17.27;11.63;;;154.20;2252.80;;;;;;4631358;30;20039;-83
2022/02/22 08:47:47;;;;;;;18.52;10.55;;;154.30;2252.80;;;;;;4627313;30;20576;-83
2022/02/22 08:51:08;;;;;;;14.95;8.80;;;154.40;2252.80;;;;;;4614085;30;20052;-83
2022/02/22 08:54:18;;;;;;;21.92;14.35;;;154.30;2252.80;;;;;;4583245;31;20040;-84
2022/02/22 08:57:31;;;;;;;14.55;9.60;;;154.30;2252.80;;;;;;4591238;31;20048;-84
2022/02/22 09:00:45;;;;;;;11.98;8.00;;;154.30;2252.80;;;;;;4603361;30;20116;-82
2022/02/22 09:03:39;;;;;;;14.45;10.15;;;154.00;2252.80;;;;;;4613697;31;20577;-83
2022/02/22 09:06:28;;;;;;;16.05;13.63;;;153.90;2252.80;;;;;;4613914;31;20075;-83
2022/02/22 09:09:02;;;;;;;20.13;15.55;;;153.80;2252.80;;;;;;4614168;31;20040;-84
2022/02/22 09:11:37;;;;;;;33.75;22.58;;;153.90;2252.80;;;;;;4611783;31;20103;-82
2022/02/22 09:14:28;;;;;;;36.35;22.02;;;154.00;2252.80;;;;;;4633889;30;20043;-83
2022/02/22 09:17:22;;;;;;;36.90;24.30;;;154.00;2252.80;;;;;;4652112;30;20165;-82
2022/02/22 09:20:34;;;;;;;21.92;14.40;;;153.90;2252.80;;;;;;4685291;30;20466;-81
2022/02/22 09:23:25;;;;;;;21.63;14.10;;;153.90;2252.80;;;;;;4681960;30;20045;-84
2022/02/22 09:26:41;;;;;;;73.85;41.03;;;153.90;2252.80;;;;;;4719405;30;20045;-82
2022/02/22 09:29:16;;;;;;;29.67;19.98;;;154.00;2252.80;;;;;;4723053;30;20059;-83
2022/02/22 09:32:37;;;;;;;14.27;10.88;;;154.00;2252.80;;;;;;4696659;30;20046;-83
2022/02/22 09:35:30;;;;;;;14.68;7.95;;;154.10;2252.80;;;;;;4706339;30;20131;-83
2022/02/22 09:37:57;;;;;;;30.95;14.38;;;154.10;2252.80;;;;;;4724845;30;20497;-83
2022/02/22 09:40:25;;;;;;;27.92;17.50;;;154.10;2252.80;;;;;;4771535;29;20036;-80
2022/02/22 09:42:51;;;;;;;23.63;15.35;;;154.20;2252.80;;;;;;4774300;30;20046;-85
2022/02/22 09:45:17;;;;;;;13.32;7.80;;;154.40;2252.80;;;;;;4774867;30;20485;-82
2022/02/22 09:47:50;;;;;;;32.55;21.75;;;154.40;2252.80;;;;;;4775080;30;20035;-81
2022/02/22 09:50:16;;;;;;;37.70;24.17;;;154.30;2252.80;;;;;;4832719;29;20102;-82
2022/02/22 09:52:45;;;;;;;27.60;18.15;;;154.50;2252.80;;;;;;4847053;29;20066;-82
2022/02/22 09:56:07;;;;;;;20.70;14.60;;;154.40;2252.80;;;;;;4867633;29;20534;-82
2022/02/22 09:59:22;;;;;;;22.88;15.73;;;154.40;2252.80;;;;;;4874782;29;20044;-82
2022/02/22 10:02:38;;;;;;;42.42;27.52;;;154.50;2252.80;;;;;;4830728;29;20558;-78
2022/02/22 10:05:19;;;;;;;32.90;23.95;;;154.50;2252.80;;;;;;4861047;29;20037;-77
2022/02/22 10:08:11;;;;;;;35.83;21.73;;;154.50;2252.80;;;;;;4865112;29;20032;-82
2022/02/22 10:11:17;;;;;;;37.83;26.92;;;179.20;2252.80;;;;;;4864123;29;20065;-82
2022/02/22 10:14:55;;;;;;;31.98;21.50;;;179.30;2252.80;;;;;;4793050;29;20142;-82
2022/02/22 10:18:29;;;;;;;;;;;;;;;;;;;;;
2022/02/22 10:24:46;;;;;;;14.38;9.63;;;179.40;2252.80;;;;;;4772825;30;20557;-83
2022/02/22 10:28:05;;;;;;;23.05;18.25;;;179.40;2252.80;;;;;;4769456;30;20492;-84
2022/02/22 10:31:34;;;;;;;17.80;14.00;;;179.40;2252.80;;;;;;4766462;30;20071;-83
2022/02/22 10:35:00;;;;;;;21.60;15.13;;;179.40;2252.80;;;;;;4766209;29;20047;-84
2022/02/22 10:38:15;;;;;;;30.80;20.50;;;179.40;2252.80;;;;;;4792366;29;20526;-84
2022/02/22 10:40:51;;;;;;;23.75;17.80;;;179.40;2252.80;;;;;;4805830;29;20035;-85
2022/02/22 11:31:54;;;;;;;29.50;20.95;;;179.50;2252.80;;;;;;4899996;28;20048;-81
2022/02/22 11:39:21;;;;;;;46.10;27.17;;;179.50;2252.80;;;;;;4881481;29;20574;-83
2022/02/22 11:53:28;;;;;;;24.35;18.05;;;179.40;2252.80;;;;;;4880664;29;20064;-81
2022/02/22 12:06:26;;;;;;;28.60;18.52;;;179.50;2252.80;;;;;;4805278;29;20410;-83
2022/02/22 12:22:30;;;;;;;23.45;15.13;;;179.70;2252.80;;;;;;4769031;30;20144;-82
2022/02/22 12:25:33;;;;;;;33.38;20.88;;;179.80;2252.80;;;;;;4775784;30;20085;-80
2022/02/22 12:28:04;;;;;;;24.38;17.15;;;179.80;2252.80;;;;;;4788389;29;20150;-78
2022/02/22 12:37:23;;;;;;;29.35;17.50;;;179.90;2252.80;;;;;;4822824;29;20050;-81
2022/02/22 12:39:53;;;;;;;25.73;15.50;;;180.10;2252.80;;;;;;4807317;29;20026;-76
2022/02/22 12:42:22;;;;;;;13.80;9.75;;;180.10;2252.80;;;;;;4810942;29;20073;-80
2022/02/22 12:44:50;;;;;;;23.83;16.60;;;205.50;2252.80;;;;;;4843873;29;20033;-76
2022/02/22 12:51:46;;;;;;;;;;;;;;;;;;;;;
2022/02/22 13:15:21;;;;;;;21.27;15.63;;;205.10;2252.80;;;;;;4839927;29;20040;-81
2022/02/22 13:18:34;;;;;;;15.32;10.45;;;205.30;2252.80;;;;;;4809172;29;20522;-81
2022/02/22 13:21:15;;;;;;;16.33;13.02;;;205.40;2252.80;;;;;;4807084;29;20045;-79
2022/02/22 13:23:44;;;;;;;10.70;8.88;;;205.40;2252.80;;;;;;4862468;29;20127;-81
2022/02/22 13:26:17;;;;;;;19.90;11.95;;;205.50;2252.80;;;;;;4862994;29;20033;-80
2022/02/22 13:29:10;;;;;;;;;;;;;;;;;;;;;
2022/02/22 13:32:06;;;;;;;22.48;11.98;;;205.60;2252.80;;;;;;4878948;29;20043;-82
2022/02/22 13:42:00;;;;;;;24.27;16.05;;;205.60;2252.80;;;;;;4897085;29;20062;-83
2022/02/22 13:45:12;;;;;;;50.17;35.25;;;205.40;2252.80;;;;;;4862150;29;20055;-83
2022/02/22 13:47:51;;;;;;;20.60;15.65;;;205.60;2252.80;;;;;;4896911;29;20029;-84
2022/02/22 13:54:45;;;;;;;18.40;13.55;;;205.40;2252.80;;;;;;4829954;29;20043;-84
2022/02/22 14:01:25;;;;;;;;;;;;;;;;;;;;;
2022/02/22 14:04:37;;;;;;;17.58;12.75;;;205.30;2252.80;;;;;;4839985;29;20030;-83
2022/02/22 14:08:12;;;;;;;22.08;16.48;;;205.30;2252.80;;;;;;4824385;29;20045;-84
2022/02/22 14:11:16;;;;;;;21.92;14.77;;;205.30;2252.80;;;;;;4744075;30;20042;-85
2022/02/22 14:17:44;;;;;;;28.92;15.95;;;205.20;2252.80;;;;;;4812010;29;20054;-82
2022/02/22 14:20:30;;;;;;;41.42;24.02;;;204.90;2252.80;;;;;;4806470;29;20037;-84
2022/02/22 15:03:02;;;;;;;63.13;38.30;;;205.10;2252.80;;;;;;4898278;29;20055;-85
2022/02/22 15:13:13;;;;;;;48.92;33.47;;;205.10;2252.80;;;;;;4900423;29;20063;-86
2022/02/22 16:13:55;;;;;;;40.00;28.38;;;205.00;2252.80;;;;;;4805489;29;20102;-86
2022/02/22 16:54:10;;;;;;;45.25;31.50;;;204.80;2252.80;;;;;;4823465;29;20033;-82
2022/02/22 16:57:18;;;;;;;37.95;24.27;;;204.80;2252.80;;;;;;4770933;30;20077;-84
2022/02/22 16:59:44;;;;;;;33.15;23.67;;;204.80;2252.80;;;;;;4786032;29;20039;-79
2022/02/22 17:02:10;;;;;;;31.95;23.95;;;204.80;2252.80;;;;;;4801897;29;20109;-81
2022/02/22 17:04:36;;;;;;;36.45;24.90;;;204.80;2252.80;;;;;;4840676;29;20041;-78
2022/02/22 17:07:02;;;;;;;52.83;31.15;;;204.90;2252.80;;;;;;4840826;29;20416;-81
2022/02/22 17:09:31;;;;;;;53.30;32.22;;;204.90;2252.80;;;;;;4840541;29;20029;-79
2022/02/22 17:12:04;;;;;;;32.72;24.83;;;204.90;2252.80;;;;;;4840045;29;20042;-81
2022/02/22 17:14:40;;;;;;;29.65;23.33;;;204.90;2252.80;;;;;;4825793;29;20380;-81
2022/02/22 17:31:12;;;;;;;34.03;25.70;;;204.80;2252.80;;;;;;4840074;29;20110;-83
2022/02/22 17:34:13;;;;;;;35.25;29.70;;;204.80;2252.80;;;;;;4840289;29;20038;-84
2022/02/22 17:40:24;;;;;;;23.92;19.50;;;204.80;2252.80;;;;;;4840653;29;20081;-87
2022/02/22 18:10:36;;;;;;;32.40;22.50;;;180.10;2252.80;;;;;;4862414;29;20422;-81
2022/02/22 18:36:45;;;;;;;55.03;36.55;;;204.80;2252.80;;;;;;4843422;29;20118;-82
2022/02/22 18:39:12;;;;;;;46.55;31.63;;;204.80;2252.80;;;;;;4828060;29;20038;-85
2022/02/22 18:44:47;;;;;;;68.72;42.05;;;204.80;2252.80;;;;;;4767190;30;20129;-81
2022/02/22 18:48:05;;;;;;;48.92;31.13;;;204.80;2252.80;;;;;;4831214;29;20041;-85
2022/02/22 18:50:45;;;;;;;51.35;32.75;;;204.80;2252.80;;;;;;4824277;29;20050;-81
2022/02/22 18:53:13;;;;;;;35.53;22.20;;;204.80;2252.80;;;;;;4837681;29;20068;-84
2022/02/22 19:19:21;;;;;;;29.90;20.77;;;204.80;2252.80;;;;;;4843415;29;20124;-83
2022/02/22 19:22:22;;;;;;;25.98;17.67;;;180.10;2252.80;;;;;;4827924;29;20049;-83
2022/02/22 19:25:41;;;;;;;33.67;19.63;;;180.00;2252.80;;;;;;4829360;29;20167;-83
2022/02/22 20:58:42;;;;;;;53.72;29.60;;;179.80;2252.80;;;;;;5564471;23;20091;-75
2022/02/22 21:01:09;;;;;;;30.67;19.58;;;179.80;2252.80;;;;;;4898811;29;20040;-75
2022/02/22 21:03:36;;;;;;;30.75;21.77;;;179.80;2252.80;;;;;;4897867;29;20461;-75
2022/02/22 21:06:01;;;;;;;26.33;17.67;;;179.80;2252.80;;;;;;4893246;29;20100;-76
2022/02/22 21:08:27;;;;;;;32.47;21.60;;;179.90;2252.80;;;;;;4893870;29;20028;-77
2022/02/22 21:10:53;;;;;;;32.28;25.95;;;179.90;2252.80;;;;;;4885392;29;20095;-74
2022/02/22 21:13:19;;;;;;;28.10;18.90;;;179.90;2252.80;;;;;;4906298;29;20016;-73
2022/02/22 21:15:44;;;;;;;29.90;17.88;;;179.90;2252.80;;;;;;4905894;29;20024;-74
2022/02/22 21:18:12;;;;;;;58.75;29.70;;;179.90;2252.80;;;;;;4906498;29;20065;-77
2022/02/22 21:20:38;;;;;;;105.72;45.97;;;179.90;2252.80;;;;;;4906214;29;20020;-76
2022/02/22 21:23:05;;;;;;;51.92;27.40;;;179.90;2252.80;;;;;;4905886;29;20016;-78
2022/02/22 21:25:33;;;;;;;103.07;49.10;;;179.90;2252.80;;;;;;4921479;29;20073;-75
2022/02/22 21:28:01;;;;;;;80.38;41.20;;;179.90;2252.80;;;;;;4905515;29;20040;-76
2022/02/22 21:30:27;;;;;;;48.05;25.98;;;179.90;2252.80;;;;;;4922233;29;20013;-77
2022/02/22 21:32:53;;;;;;;27.50;18.13;;;179.90;2252.80;;;;;;4922055;29;20009;-77
2022/02/22 21:35:19;;;;;;;53.42;31.67;;;179.90;2252.80;;;;;;4905088;29;20076;-78
2022/02/22 21:37:46;;;;;;;25.13;16.98;;;179.90;2252.80;;;;;;4895536;29;20036;-77
2022/02/22 21:43:32;;;;;;;16.40;11.05;;;179.90;2252.80;;;;;;4900222;29;20036;-79
2022/02/22 21:46:07;;;;;;;37.90;22.70;;;179.90;2252.80;;;;;;4904809;29;20392;-77
2022/02/22 21:48:33;;;;;;;24.92;16.88;;;180.00;2252.80;;;;;;4904725;29;20476;-76
2022/02/22 21:50:59;;;;;;;40.17;23.50;;;179.90;2252.80;;;;;;4904050;29;20039;-79
2022/02/22 22:00:11;;;;;;;44.22;27.73;;;180.00;2252.80;;;;;;4921468;29;20095;-80
2022/02/22 22:02:54;;;;;;;52.88;30.75;;;180.00;2252.80;;;;;;4904762;29;20476;-80
2022/02/22 22:39:59;;;;;;;38.08;23.38;;;179.90;2252.80;;;;;;5713573;23;20068;-79
2022/02/22 22:45:38;;;;;;;30.90;18.48;;;179.90;2252.80;;;;;;4881940;29;20089;-80
2022/02/22 23:15:58;;;;;;;27.58;13.50;;;179.70;2252.80;;;;;;4882190;29;20438;-84
